EGNTEGOV

Guest
Details From EGNT - Newcastle
To EGOV - RAF Valley
Flight Number -
Tags generated
Created
Modified
Stats Distance 147 nm / 272 km
Max Altitude 10,800 ft / 3,292 m
Waypoints 3
Social Downloads 1
Likes 0
Share VATSIM

Download

Looking for another format? Having issues loading an existing format? Contact us
Advertisement - Login to hide

Notes

Basic altitude profile: - Ascent Rate: 2500ft/min - Ascent Speed: 250kts - Cruise Altitude: 35000ft - Cruise Speed: 420kts - Descent Rate: 1500ft/min - Descent Speed: 250kts Options: - Use NATs: yes - Use PACOTS: yes - Use low airways: yes - Use high airways: yes

Route

EGNT GETNO EGOV

ID Type Via Altitude Latitude Longitude Leg Dist Tot Dist Heading (true) Name
O EGNT APT - 0 ft / 0 m 55.03792˚ -1.68983˚ - 0 nm - Newcastle
GETNO FIX - 10,800 ft / 3,292 m 53.93000˚ -3.49639˚ 91 nm 91 nm 224° / 223° -
O EGOV APT - 0 ft / 0 m 53.24853˚ -4.53647˚ 55 nm 146 nm 223° / 222° RAF Valley

Altitude Profile

Advertisement - Login to hide

EGNT

Details ICAO EGNT (NCL)
Name Newcastle
Region United Kingdom
Timezone Europe/London (UTC+0.0)
Stats Elevation 266 ft / 81 m (AMSL)
Location 55.037922° -1.689833°
Runways 1
Magnetic Variation 1.478° W

METAR

EGNT 140220Z 27016KT 9999 SCT015 01/M00 Q0983

Decode

TAF

TAF EGNT 132256Z 1400/1424 27011KT 9999 FEW020 PROB40 TEMPO 1400/1409 26015G25KT BKN010 BECMG 1406/1409 21007KT PROB30 TEMPO 1415/1424 5000 -SHRASN BKN008

Decode

Departure Runways

ID Width Length Bearing (true) Bearing (mag) Surface Threshold Offset Overrun Length
07 151 ft / 46 m 7,621 ft / 2,323 m 65.13° 66.61° Asphalt 394 ft / 120 m 108 ft / 33 m
25 151 ft / 46 m 7,621 ft / 2,323 m 245.16° 246.64° Asphalt 446 ft / 136 m 56 ft / 17 m

EGOV

Details ICAO EGOV (HLY)
Name RAF Valley
Region United Kingdom
Timezone Europe/London (UTC+0.0)
Stats Elevation 37 ft / 11 m (AMSL)
Location 53.248528° -4.536473°
Runways 3
Magnetic Variation 2.312° W

METAR

EGOV 140150Z AUTO 27029G39KT 9999 BKN020/// 06/02 Q0989

Decode

TAF

Not found

Destination Runways

ID Width Length Bearing (true) Bearing (mag) Surface Threshold Offset Overrun Length
01 157 ft / 48 m 5,470 ft / 1,667 m 6.15° 8.46° Asphalt 72 ft / 22 m 7 ft / 2 m
08 154 ft / 47 m 4,174 ft / 1,272 m 69.67° 71.98° Asphalt 702 ft / 214 m 0 ft / 0 m
14 154 ft / 47 m 7,551 ft / 2,302 m 130.54° 132.85° Asphalt 59 ft / 18 m 0 ft / 0 m
19 157 ft / 48 m 5,470 ft / 1,667 m 186.16° 188.47° Asphalt 213 ft / 65 m 0 ft / 0 m
26 154 ft / 47 m 4,174 ft / 1,272 m 249.69° 252.00° Asphalt 400 ft / 122 m 0 ft / 0 m
32 154 ft / 47 m 7,551 ft / 2,302 m 310.56° 312.87° Asphalt 0 ft / 0 m 627 ft / 191 m

Approach Navaids

Runway Type Ident Frequency Range Bearing (true) Bearing (mag) Slope Elevation
14 Localiser VY 109.70 MHz 18 nm / 33 km 132.00° 134.31° - 37 ft / 11 m (AMSL)
14 Glidescope VY 109.70 MHz 10 nm / 19 km 132.00° 134.31° 3.00° 37 ft / 11 m (AMSL)